Aérodrome :
LOGIN :

S'inscrire | Disclaimer

   EN    FR    IT 

 










Légende :    VFR   VFR Marginal   IFR   IFR Intensif   IFR Très Intensif
Visi : 
Plafond : 
>= 8 km
>= 3000ft
5 à 8 km
1000 à 3000 ft
1500m à 5 km
500 à 1000 ft
800 à 1500m
200 à 500 ft
< 800m
< 200 ft
Symboles :   Orages  Brouillard  Fortes neiges  Fortes précipitations  Vent > 20 kt
SIGMETs :   Divers  Orages  Givrage  Turbulence  Onde Orograph.  Cendres Volcan.






- Altitude de l'aérodrome : 79 ft
- Code IATA : NSY


LICZ - Sigonella (Mil) Catania

DERNIER METAR :
  • 040655Z 26011KT 9999 FEW025 10/10 Q1008 RMK FEW VIS MIN 9999 WIND THR28 27012KT WIND THR10 26012KT A2978 BLU

METARs EXPIRÉS :
  • 040555Z 27010KT CAVOK 10/10 Q1008 RMK SKC VIS MIN 9999 WIND THR28 26010KT WIND THR10 27010KT A2977 BLU
  • 040455Z 26010KT CAVOK 11/11 Q1007 RMK SKC VIS MIN 9999 WIND THR28 26012KT WIND THR10 26011KT A2976 BLU

TAF TAF LICZ
Valide du 04 à 06h jusqu'au 05 à 06h UTC


040500Z 0406/0506 26010KT CAVOK
BECMG 0414/0416 VRB03KT SCT030
BECMG 0421/0423 CAVOK



MET'MAP, la Météo Aéronautique d'un coup d'oeil ! - Copyright ORBIFLY Décembre 2007 - Disclaimer

ORBIFLY MET'MAP TEAM :

Programmation & Développement : Alexandra Zaïnal
Sur une idée originale de : Baudouin d'Aumeries
Assistance à la programmation : Marc-Olivier Méhu
Soutien technique & logistique : Manuel Goepfert

Contact : metmap@orbifly.com




SOURCES & CREDITS :

   NOAA